sensor_id;sensor_type;location;lat;lon;timestamp;pressure;altitude;pressure_sealevel;temperature;humidity
18436;BME280;9346;52.006;4.720;2023-02-23T00:01:13;101244.00;;;9.19;100.00
18436;BME280;9346;52.006;4.720;2023-02-23T00:03:41;101250.06;;;9.21;100.00
18436;BME280;9346;52.006;4.720;2023-02-23T00:06:08;101245.16;;;9.23;100.00
18436;BME280;9346;52.006;4.720;2023-02-23T00:08:36;101250.38;;;9.25;100.00
18436;BME280;9346;52.006;4.720;2023-02-23T00:11:04;101249.56;;;9.24;100.00
18436;BME280;9346;52.006;4.720;2023-02-23T00:13:33;101248.72;;;9.24;100.00
18436;BME280;9346;52.006;4.720;2023-02-23T00:16:06;101246.22;;;9.22;100.00
18436;BME280;9346;52.006;4.720;2023-02-23T00:18:33;101255.81;;;9.20;100.00
18436;BME280;9346;52.006;4.720;2023-02-23T00:21:10;101252.22;;;9.19;100.00
18436;BME280;9346;52.006;4.720;2023-02-23T00:23:40;101244.31;;;9.23;100.00
18436;BME280;9346;52.006;4.720;2023-02-23T00:26:07;101251.72;;;9.22;100.00
18436;BME280;9346;52.006;4.720;2023-02-23T00:28:35;101247.56;;;9.20;100.00
18436;BME280;9346;52.006;4.720;2023-02-23T00:31:02;101248.94;;;9.17;100.00
18436;BME280;9346;52.006;4.720;2023-02-23T00:33:30;101243.09;;;9.13;100.00
18436;BME280;9346;52.006;4.720;2023-02-23T00:36:02;101235.34;;;9.10;100.00
18436;BME280;9346;52.006;4.720;2023-02-23T00:38:30;101241.44;;;9.13;100.00
18436;BME280;9346;52.006;4.720;2023-02-23T00:41:03;101239.84;;;9.17;100.00
18436;BME280;9346;52.006;4.720;2023-02-23T00:43:48;101242.66;;;9.22;100.00
18436;BME280;9346;52.006;4.720;2023-02-23T00:46:16;101240.72;;;9.22;100.00
18436;BME280;9346;52.006;4.720;2023-02-23T00:48:44;101227.56;;;9.24;100.00
18436;BME280;9346;52.006;4.720;2023-02-23T00:51:12;101229.22;;;9.25;100.00
18436;BME280;9346;52.006;4.720;2023-02-23T00:53:39;101228.94;;;9.22;100.00
18436;BME280;9346;52.006;4.720;2023-02-23T00:56:08;101236.06;;;9.23;100.00
18436;BME280;9346;52.006;4.720;2023-02-23T00:58:36;101233.06;;;9.24;100.00
18436;BME280;9346;52.006;4.720;2023-02-23T01:01:07;101233.06;;;9.24;100.00
18436;BME280;9346;52.006;4.720;2023-02-23T01:03:35;101234.97;;;9.24;100.00
18436;BME280;9346;52.006;4.720;2023-02-23T01:06:04;101236.91;;;9.23;100.00
18436;BME280;9346;52.006;4.720;2023-02-23T01:08:31;101231.66;;;9.22;100.00
18436;BME280;9346;52.006;4.720;2023-02-23T01:11:04;101240.19;;;9.20;100.00
18436;BME280;9346;52.006;4.720;2023-02-23T01:13:31;101241.81;;;9.21;100.00
18436;BME280;9346;52.006;4.720;2023-02-23T01:15:59;101245.97;;;9.24;100.00
18436;BME280;9346;52.006;4.720;2023-02-23T01:18:27;101245.16;;;9.23;100.00
18436;BME280;9346;52.006;4.720;2023-02-23T01:20:59;101247.91;;;9.23;100.00
18436;BME280;9346;52.006;4.720;2023-02-23T01:23:26;101245.41;;;9.22;100.00
18436;BME280;9346;52.006;4.720;2023-02-23T01:25:53;101251.72;;;9.22;100.00
18436;BME280;9346;52.006;4.720;2023-02-23T01:28:20;101246.22;;;9.22;100.00
18436;BME280;9346;52.006;4.720;2023-02-23T01:30:47;101255.88;;;9.25;100.00
18436;BME280;9346;52.006;4.720;2023-02-23T01:33:15;101253.72;;;9.27;100.00
18436;BME280;9346;52.006;4.720;2023-02-23T01:35:44;101248.72;;;9.24;100.00
18436;BME280;9346;52.006;4.720;2023-02-23T01:38:11;101245.41;;;9.22;100.00
18436;BME280;9346;52.006;4.720;2023-02-23T01:40:42;101241.50;;;9.18;100.00
18436;BME280;9346;52.006;4.720;2023-02-23T01:43:13;101243.69;;;9.16;100.00
18436;BME280;9346;52.006;4.720;2023-02-23T01:45:42;101247.25;;;9.16;100.00
18436;BME280;9346;52.006;4.720;2023-02-23T01:48:12;101245.09;;;9.18;100.00
18436;BME280;9346;52.006;4.720;2023-02-23T01:50:46;101243.47;;;9.22;100.00
18436;BME280;9346;52.006;4.720;2023-02-23T01:53:15;101242.13;;;9.25;100.00
18436;BME280;9346;52.006;4.720;2023-02-23T01:55:46;101239.06;;;9.21;100.00
18436;BME280;9346;52.006;4.720;2023-02-23T01:58:16;101244.25;;;9.18;100.00
18436;BME280;9346;52.006;4.720;2023-02-23T02:00:46;101244.84;;;9.20;100.00
18436;BME280;9346;52.006;4.720;2023-02-23T02:03:18;101246.72;;;9.19;100.00
18436;BME280;9346;52.006;4.720;2023-02-23T02:05:55;101247.00;;;9.18;100.00
18436;BME280;9346;52.006;4.720;2023-02-23T02:08:31;101253.59;;;9.17;100.00
18436;BME280;9346;52.006;4.720;2023-02-23T02:11:09;101257.44;;;9.16;100.00
18436;BME280;9346;52.006;4.720;2023-02-23T02:13:50;101265.41;;;9.17;100.00
18436;BME280;9346;52.006;4.720;2023-02-23T02:16:37;101262.97;;;9.21;100.00
18436;BME280;9346;52.006;4.720;2023-02-23T02:25:43;101270.78;;;9.29;100.00
18436;BME280;9346;52.006;4.720;2023-02-23T02:28:45;101263.59;;;9.28;100.00
18436;BME280;9346;52.006;4.720;2023-02-23T02:34:41;101257.03;;;9.29;100.00
18436;BME280;9346;52.006;4.720;2023-02-23T02:37:45;101250.69;;;9.28;100.00
18436;BME280;9346;52.006;4.720;2023-02-23T02:40:25;101250.13;;;9.26;100.00
18436;BME280;9346;52.006;4.720;2023-02-23T02:42:59;101251.22;;;9.25;100.00
18436;BME280;9346;52.006;4.720;2023-02-23T02:45:40;101247.38;;;9.26;100.00
18436;BME280;9346;52.006;4.720;2023-02-23T02:48:19;101252.88;;;9.26;100.00
18436;BME280;9346;52.006;4.720;2023-02-23T02:50:52;101249.31;;;9.26;100.00
18436;BME280;9346;52.006;4.720;2023-02-23T02:53:27;101250.38;;;9.25;100.00
18436;BME280;9346;52.006;4.720;2023-02-23T02:56:03;101245.09;;;9.18;100.00
18436;BME280;9346;52.006;4.720;2023-02-23T02:58:31;101248.66;;;9.19;100.00
18436;BME280;9346;52.006;4.720;2023-02-23T03:01:05;101243.72;;;9.21;100.00
18436;BME280;9346;52.006;4.720;2023-02-23T03:03:49;101240.72;;;9.22;100.00
18436;BME280;9346;52.006;4.720;2023-02-23T03:06:37;101245.66;;;9.20;100.00
18436;BME280;9346;52.006;4.720;2023-02-23T03:09:35;101239.91;;;9.22;100.00
18436;BME280;9346;52.006;4.720;2023-02-23T03:12:30;101233.56;;;9.21;100.00
18436;BME280;9346;52.006;4.720;2023-02-23T03:15:27;101233.56;;;9.21;100.00
18436;BME280;9346;52.006;4.720;2023-02-23T03:18:24;101235.22;;;9.22;100.00
18436;BME280;9346;52.006;4.720;2023-02-23T03:21:15;101233.25;;;9.18;100.00
18436;BME280;9346;52.006;4.720;2023-02-23T03:24:10;101238.19;;;9.16;100.00
18436;BME280;9346;52.006;4.720;2023-02-23T03:27:00;101243.69;;;9.16;100.00
18436;BME280;9346;52.006;4.720;2023-02-23T03:29:52;101247.50;;;9.14;100.00
18436;BME280;9346;52.006;4.720;2023-02-23T03:32:43;101254.69;;;9.16;100.00
18436;BME280;9346;52.006;4.720;2023-02-23T03:35:32;101248.59;;;9.13;100.00
18436;BME280;9346;52.006;4.720;2023-02-23T03:38:23;101255.75;;;9.14;100.00
18436;BME280;9346;52.006;4.720;2023-02-23T03:41:11;101263.72;;;9.16;100.00
18436;BME280;9346;52.006;4.720;2023-02-23T03:44:02;101265.91;;;9.14;100.00
18436;BME280;9346;52.006;4.720;2023-02-23T03:46:50;101269.47;;;9.14;100.00
18436;BME280;9346;52.006;4.720;2023-02-23T03:49:37;101270.31;;;9.15;100.00
18436;BME280;9346;52.006;4.720;2023-02-23T03:52:25;101268.41;;;9.16;100.00
18436;BME280;9346;52.006;4.720;2023-02-23T03:55:14;101270.06;;;9.17;100.00
18436;BME280;9346;52.006;4.720;2023-02-23T03:58:00;101274.41;;;9.13;100.00
18436;BME280;9346;52.006;4.720;2023-02-23T04:00:48;101278.50;;;9.10;100.00
18436;BME280;9346;52.006;4.720;2023-02-23T04:03:35;101277.69;;;9.09;100.00
18436;BME280;9346;52.006;4.720;2023-02-23T04:06:23;101283.44;;;9.08;100.00
18436;BME280;9346;52.006;4.720;2023-02-23T04:09:09;101278.78;;;9.08;100.00
18436;BME280;9346;52.006;4.720;2023-02-23T04:11:56;101285.91;;;9.09;100.00
18436;BME280;9346;52.006;4.720;2023-02-23T04:14:44;101279.59;;;9.09;100.00
18436;BME280;9346;52.006;4.720;2023-02-23T04:17:16;101278.50;;;9.10;100.00
18436;BME280;9346;52.006;4.720;2023-02-23T04:19:48;101287.56;;;9.10;100.00
18436;BME280;9346;52.006;4.720;2023-02-23T04:22:15;101283.16;;;9.09;100.00
18436;BME280;9346;52.006;4.720;2023-02-23T04:24:43;101286.72;;;9.10;100.00
18436;BME280;9346;52.006;4.720;2023-02-23T04:27:11;101288.66;;;9.09;100.00
18436;BME280;9346;52.006;4.720;2023-02-23T04:29:38;101290.56;;;9.09;100.00
18436;BME280;9346;52.006;4.720;2023-02-23T04:32:06;101296.91;;;9.09;100.00
18436;BME280;9346;52.006;4.720;2023-02-23T04:34:34;101286.72;;;9.10;100.00
18436;BME280;9346;52.006;4.720;2023-02-23T04:37:01;101285.06;;;9.09;100.00
18436;BME280;9346;52.006;4.720;2023-02-23T04:39:28;101280.41;;;9.09;100.00
18436;BME280;9346;52.006;4.720;2023-02-23T04:41:55;101290.56;;;9.09;100.00
18436;BME280;9346;52.006;4.720;2023-02-23T04:44:21;101287.00;;;9.08;100.00
18436;BME280;9346;52.006;4.720;2023-02-23T04:46:49;101290.31;;;9.10;100.00
18436;BME280;9346;52.006;4.720;2023-02-23T04:49:15;101285.41;;;9.13;100.00
18436;BME280;9346;52.006;4.720;2023-02-23T04:51:44;101285.16;;;9.14;100.00
18436;BME280;9346;52.006;4.720;2023-02-23T04:54:11;101283.22;;;9.14;100.00
18436;BME280;9346;52.006;4.720;2023-02-23T04:56:38;101287.06;;;9.13;100.00
18436;BME280;9346;52.006;4.720;2023-02-23T04:59:06;101292.56;;;9.13;100.00
18436;BME280;9346;52.006;4.720;2023-02-23T05:04:55;101290.06;;;9.12;100.00
18436;BME280;9346;52.006;4.720;2023-02-23T05:07:24;101286.72;;;9.10;100.00
18436;BME280;9346;52.006;4.720;2023-02-23T05:09:51;101303.22;;;9.10;100.00
18436;BME280;9346;52.006;4.720;2023-02-23T05:12:18;101307.91;;;9.09;100.00
18436;BME280;9346;52.006;4.720;2023-02-23T05:14:45;101305.97;;;9.10;100.00
18436;BME280;9346;52.006;4.720;2023-02-23T05:17:12;101313.41;;;9.09;100.00
18436;BME280;9346;52.006;4.720;2023-02-23T05:19:38;101315.56;;;9.07;100.00
18436;BME280;9346;52.006;4.720;2023-02-23T05:22:05;101316.66;;;9.06;100.00
18436;BME280;9346;52.006;4.720;2023-02-23T05:24:38;101319.91;;;9.03;100.00
18436;BME280;9346;52.006;4.720;2023-02-23T05:27:05;101318.25;;;9.02;100.00
18436;BME280;9346;52.006;4.720;2023-02-23T05:29:33;101320.66;;;8.99;100.00
18436;BME280;9346;52.006;4.720;2023-02-23T05:31:59;101325.81;;;8.95;100.00
18436;BME280;9346;52.006;4.720;2023-02-23T05:34:26;101322.75;;;8.92;100.00
18436;BME280;9346;52.006;4.720;2023-02-23T05:36:53;101325.75;;;8.90;100.00
18436;BME280;9346;52.006;4.720;2023-02-23T05:39:20;101319.09;;;8.86;100.00
18436;BME280;9346;52.006;4.720;2023-02-23T05:41:49;101326.25;;;8.87;100.00
18436;BME280;9346;52.006;4.720;2023-02-23T05:44:16;101333.16;;;8.90;100.00
18436;BME280;9346;52.006;4.720;2023-02-23T05:46:44;101327.09;;;8.88;100.00
18436;BME280;9346;52.006;4.720;2023-02-23T05:49:12;101320.50;;;8.89;100.00
18436;BME280;9346;52.006;4.720;2023-02-23T05:51:39;101332.34;;;8.89;100.00
18436;BME280;9346;52.006;4.720;2023-02-23T05:54:05;101323.25;;;8.89;100.00
18436;BME280;9346;52.006;4.720;2023-02-23T05:56:33;101325.41;;;8.87;100.00
18436;BME280;9346;52.006;4.720;2023-02-23T05:59:02;101327.09;;;8.88;100.00
18436;BME280;9346;52.006;4.720;2023-02-23T06:01:30;101326.50;;;8.86;100.00
18436;BME280;9346;52.006;4.720;2023-02-23T06:03:57;101331.75;;;8.87;100.00
18436;BME280;9346;52.006;4.720;2023-02-23T06:06:24;101324.34;;;8.88;100.00
18436;BME280;9346;52.006;4.720;2023-02-23T06:08:53;101330.66;;;8.88;100.00
18436;BME280;9346;52.006;4.720;2023-02-23T06:11:20;101329.84;;;8.88;100.00
18436;BME280;9346;52.006;4.720;2023-02-23T06:13:47;101334.75;;;8.86;100.00
18436;BME280;9346;52.006;4.720;2023-02-23T06:16:16;101326.75;;;8.84;100.00
18436;BME280;9346;52.006;4.720;2023-02-23T06:18:43;101333.34;;;8.83;100.00
18436;BME280;9346;52.006;4.720;2023-02-23T06:21:10;101341.59;;;8.83;100.00
18436;BME280;9346;52.006;4.720;2023-02-23T06:23:37;101344.56;;;8.82;100.00
18436;BME280;9346;52.006;4.720;2023-02-23T06:26:04;101346.47;;;8.81;100.00
18436;BME280;9346;52.006;4.720;2023-02-23T06:28:32;101347.81;;;8.79;100.00
18436;BME280;9346;52.006;4.720;2023-02-23T06:31:00;101359.91;;;8.78;100.00
18436;BME280;9346;52.006;4.720;2023-02-23T06:33:29;101360.16;;;8.76;100.00
18436;BME280;9346;52.006;4.720;2023-02-23T06:35:55;101349.72;;;8.78;100.00
18436;BME280;9346;52.006;4.720;2023-02-23T06:38:22;101362.41;;;8.79;100.00
18436;BME280;9346;52.006;4.720;2023-02-23T06:40:49;101365.16;;;8.79;100.00
18436;BME280;9346;52.006;4.720;2023-02-23T06:43:16;101365.41;;;8.78;100.00
18436;BME280;9346;52.006;4.720;2023-02-23T06:45:45;101359.31;;;8.76;100.00
18436;BME280;9346;52.006;4.720;2023-02-23T06:48:12;101361.81;;;8.77;100.00
18436;BME280;9346;52.006;4.720;2023-02-23T06:50:41;101363.72;;;8.77;100.00
18436;BME280;9346;52.006;4.720;2023-02-23T06:53:08;101367.06;;;8.79;100.00
18436;BME280;9346;52.006;4.720;2023-02-23T06:55:34;101368.69;;;8.80;100.00
18436;BME280;9346;52.006;4.720;2023-02-23T06:58:01;101371.69;;;8.78;100.00
18436;BME280;9346;52.006;4.720;2023-02-23T07:00:29;101373.03;;;8.76;100.00
18436;BME280;9346;52.006;4.720;2023-02-23T07:02:56;101375.53;;;8.77;100.00
18436;BME280;9346;52.006;4.720;2023-02-23T07:05:33;101379.38;;;8.76;100.00
18436;BME280;9346;52.006;4.720;2023-02-23T07:08:02;101385.13;;;8.75;100.00
18436;BME280;9346;52.006;4.720;2023-02-23T07:10:30;101387.03;;;8.74;100.00
18436;BME280;9346;52.006;4.720;2023-02-23T07:12:56;101393.34;;;8.75;100.00
18436;BME280;9346;52.006;4.720;2023-02-23T07:15:25;101410.91;;;8.74;100.00
18436;BME280;9346;52.006;4.720;2023-02-23T07:17:52;101407.09;;;8.75;100.00
18436;BME280;9346;52.006;4.720;2023-02-23T07:20:19;101420.22;;;8.73;100.00
18436;BME280;9346;52.006;4.720;2023-02-23T07:22:46;101434.81;;;8.73;100.00
18436;BME280;9346;52.006;4.720;2023-02-23T07:25:15;101436.72;;;8.73;100.00
18436;BME280;9346;52.006;4.720;2023-02-23T07:27:42;101441.59;;;8.71;100.00
18436;BME280;9346;52.006;4.720;2023-02-23T07:30:10;101442.69;;;8.70;100.00
18436;BME280;9346;52.006;4.720;2023-02-23T07:32:37;101446.78;;;8.67;100.00
18436;BME280;9346;52.006;4.720;2023-02-23T07:35:05;101444.03;;;8.67;100.00
18436;BME280;9346;52.006;4.720;2023-02-23T07:37:32;101446.78;;;8.67;100.00
18436;BME280;9346;52.006;4.720;2023-02-23T07:39:59;101450.59;;;8.66;100.00
18436;BME280;9346;52.006;4.720;2023-02-23T07:42:27;101461.56;;;8.66;100.00
18436;BME280;9346;52.006;4.720;2023-02-23T07:44:54;101458.56;;;8.68;100.00
18436;BME280;9346;52.006;4.720;2023-02-23T07:47:21;101458.00;;;8.66;100.00
18436;BME280;9346;52.006;4.720;2023-02-23T07:49:55;101458.00;;;8.66;100.00
18436;BME280;9346;52.006;4.720;2023-02-23T07:52:25;101463.25;;;8.67;100.00
18436;BME280;9346;52.006;4.720;2023-02-23T07:54:53;101466.56;;;8.69;100.00
18436;BME280;9346;52.006;4.720;2023-02-23T07:57:20;101466.56;;;8.69;100.00
18436;BME280;9346;52.006;4.720;2023-02-23T07:59:49;101470.75;;;8.72;100.00
18436;BME280;9346;52.006;4.720;2023-02-23T08:02:16;101464.78;;;8.75;100.00
18436;BME280;9346;52.006;4.720;2023-02-23T08:04:43;101471.31;;;8.74;100.00
18436;BME280;9346;52.006;4.720;2023-02-23T08:07:10;101463.69;;;8.76;100.00
18436;BME280;9346;52.006;4.720;2023-02-23T08:09:36;101480.75;;;8.78;100.00
18436;BME280;9346;52.006;4.720;2023-02-23T08:12:04;101484.31;;;8.78;100.00
18436;BME280;9346;52.006;4.720;2023-02-23T08:14:31;101490.41;;;8.80;100.00
18436;BME280;9346;52.006;4.720;2023-02-23T08:16:59;101486.56;;;8.81;100.00
18436;BME280;9346;52.006;4.720;2023-02-23T08:19:26;101488.75;;;8.79;100.00
18436;BME280;9346;52.006;4.720;2023-02-23T08:21:53;101490.97;;;8.82;100.00
18436;BME280;9346;52.006;4.720;2023-02-23T08:24:20;101496.47;;;8.82;100.00
18436;BME280;9346;52.006;4.720;2023-02-23T08:26:47;101492.91;;;8.82;100.00
18436;BME280;9346;52.006;4.720;2023-02-23T08:29:15;101495.66;;;8.82;100.00
18436;BME280;9346;52.006;4.720;2023-02-23T08:31:43;101495.66;;;8.82;100.00
18436;BME280;9346;52.006;4.720;2023-02-23T08:34:12;101497.56;;;8.81;100.00
18436;BME280;9346;52.006;4.720;2023-02-23T08:36:40;101496.72;;;8.81;100.00
18436;BME280;9346;52.006;4.720;2023-02-23T08:39:09;101492.91;;;8.82;100.00
18436;BME280;9346;52.006;4.720;2023-02-23T08:41:36;101501.72;;;8.84;100.00
18436;BME280;9346;52.006;4.720;2023-02-23T08:44:03;101494.31;;;8.84;100.00
18436;BME280;9346;52.006;4.720;2023-02-23T08:46:30;101500.97;;;8.88;100.00
18436;BME280;9346;52.006;4.720;2023-02-23T08:48:58;101502.69;;;8.89;100.00
18436;BME280;9346;52.006;4.720;2023-02-23T08:51:27;101508.25;;;8.94;100.00
18436;BME280;9346;52.006;4.720;2023-02-23T08:53:54;101516.59;;;8.99;100.00
18436;BME280;9346;52.006;4.720;2023-02-23T08:56:21;101516.91;;;9.03;100.00
18436;BME280;9346;52.006;4.720;2023-02-23T08:58:49;101526.13;;;8.97;100.00
18436;BME280;9346;52.006;4.720;2023-02-23T09:01:18;101523.63;;;8.95;100.00
18436;BME280;9346;52.006;4.720;2023-02-23T09:03:46;101527.72;;;8.93;100.00
18436;BME280;9346;52.006;4.720;2023-02-23T09:06:16;101524.97;;;8.93;100.00
18436;BME280;9346;52.006;4.720;2023-02-23T09:08:45;101529.13;;;8.95;100.00
18436;BME280;9346;52.006;4.720;2023-02-23T09:11:12;101525.31;;;8.96;100.00
18436;BME280;9346;52.006;4.720;2023-02-23T09:13:40;101520.06;;;8.95;100.00
18436;BME280;9346;52.006;4.720;2023-02-23T09:16:07;101527.59;;;8.99;100.00
18436;BME280;9346;52.006;4.720;2023-02-23T09:18:35;101539.63;;;8.98;100.00
18436;BME280;9346;52.006;4.720;2023-02-23T09:21:03;101544.06;;;8.99;100.00
18436;BME280;9346;52.006;4.720;2023-02-23T09:23:33;101541.31;;;8.99;100.00
18436;BME280;9346;52.006;4.720;2023-02-23T09:26:04;101549.06;;;9.02;100.00
18436;BME280;9346;52.006;4.720;2023-02-23T09:28:32;101550.47;;;9.05;100.00
18436;BME280;9346;52.006;4.720;2023-02-23T09:31:04;101558.56;;;9.11;100.00
18436;BME280;9346;52.006;4.720;2023-02-23T09:33:31;101558.06;;;9.14;100.00
18436;BME280;9346;52.006;4.720;2023-02-23T09:36:04;101558.41;;;9.18;100.00
18436;BME280;9346;52.006;4.720;2023-02-23T09:38:31;101555.66;;;9.18;100.00
18436;BME280;9346;52.006;4.720;2023-02-23T09:40:58;101560.66;;;9.21;100.00
18436;BME280;9346;52.006;4.720;2023-02-23T09:43:29;101562.69;;;9.26;100.00
18436;BME280;9346;52.006;4.720;2023-02-23T09:46:09;101552.84;;;9.30;100.00
18436;BME280;9346;52.006;4.720;2023-02-23T09:48:38;101542.19;;;9.33;100.00
18436;BME280;9346;52.006;4.720;2023-02-23T09:51:07;101544.34;;;9.31;100.00
18436;BME280;9346;52.006;4.720;2023-02-23T09:53:42;101536.59;;;9.28;100.00
18436;BME280;9346;52.006;4.720;2023-02-23T09:56:14;101539.44;;;9.33;100.00
18436;BME280;9346;52.006;4.720;2023-02-23T09:58:46;101543.94;;;9.39;100.00
18436;BME280;9346;52.006;4.720;2023-02-23T10:01:41;101534.94;;;9.44;100.00
18436;BME280;9346;52.006;4.720;2023-02-23T10:04:15;101545.44;;;9.47;100.00
18436;BME280;9346;52.006;4.720;2023-02-23T10:06:49;101548.28;;;9.52;100.00
18436;BME280;9346;52.006;4.720;2023-02-23T10:09:23;101551.09;;;9.57;100.00
18436;BME280;9346;52.006;4.720;2023-02-23T10:12:01;101555.78;;;9.56;100.00
18436;BME280;9346;52.006;4.720;2023-02-23T10:14:54;101556.69;;;9.62;100.00
18436;BME280;9346;52.006;4.720;2023-02-23T10:17:32;101552.34;;;9.66;100.00
18436;BME280;9346;52.006;4.720;2023-02-23T10:20:12;101551.09;;;9.73;100.00
18436;BME280;9346;52.006;4.720;2023-02-23T10:22:39;101552.44;;;9.71;100.00
18436;BME280;9346;52.006;4.720;2023-02-23T10:25:11;101549.94;;;9.69;100.00
18436;BME280;9346;52.006;4.720;2023-02-23T10:27:40;101555.44;;;9.69;100.00
18436;BME280;9346;52.006;4.720;2023-02-23T10:30:21;101555.09;;;9.66;100.00
18436;BME280;9346;52.006;4.720;2023-02-23T10:32:54;101558.94;;;9.65;100.00
18436;BME280;9346;52.006;4.720;2023-02-23T10:35:22;101565.28;;;9.65;100.00
18436;BME280;9346;52.006;4.720;2023-02-23T10:37:50;101567.78;;;9.67;100.00
18436;BME280;9346;52.006;4.720;2023-02-23T10:40:20;101559.78;;;9.65;100.00
18436;BME280;9346;52.006;4.720;2023-02-23T10:42:50;101563.94;;;9.68;100.00
18436;BME280;9346;52.006;4.720;2023-02-23T10:45:22;101570.53;;;9.67;100.00
18436;BME280;9346;52.006;4.720;2023-02-23T10:47:51;101571.94;;;9.69;100.00
18436;BME280;9346;52.006;4.720;2023-02-23T10:50:20;101570.00;;;9.70;100.00
18436;BME280;9346;52.006;4.720;2023-02-23T10:52:54;101570.00;;;9.70;100.00
18436;BME280;9346;52.006;4.720;2023-02-23T10:55:25;101575.25;;;9.71;100.00
18436;BME280;9346;52.006;4.720;2023-02-23T10:58:04;101573.34;;;9.72;100.00
18436;BME280;9346;52.006;4.720;2023-02-23T11:00:37;101563.19;;;9.72;100.00
18436;BME280;9346;52.006;4.720;2023-02-23T11:03:17;101565.69;;;9.74;100.00
18436;BME280;9346;52.006;4.720;2023-02-23T11:05:50;101564.00;;;9.73;100.00
18436;BME280;9346;52.006;4.720;2023-02-23T11:08:24;101572.25;;;9.73;100.00
18436;BME280;9346;52.006;4.720;2023-02-23T11:11:01;101572.25;;;9.73;100.00
18436;BME280;9346;52.006;4.720;2023-02-23T11:13:35;101573.34;;;9.72;100.00
18436;BME280;9346;52.006;4.720;2023-02-23T11:16:06;101566.44;;;9.69;100.00
18436;BME280;9346;52.006;4.720;2023-02-23T11:18:35;101574.94;;;9.68;100.00
18436;BME280;9346;52.006;4.720;2023-02-23T11:21:08;101581.53;;;9.67;100.00
18436;BME280;9346;52.006;4.720;2023-02-23T11:23:38;101583.69;;;9.65;100.00
18436;BME280;9346;52.006;4.720;2023-02-23T11:26:20;101592.25;;;9.68;100.00
18436;BME280;9346;52.006;4.720;2023-02-23T11:28:51;101589.25;;;9.70;100.00
18436;BME280;9346;52.006;4.720;2023-02-23T11:31:26;101596.78;;;9.74;100.00
18436;BME280;9346;52.006;4.720;2023-02-23T11:33:54;101586.63;;;9.75;100.00
18436;BME280;9346;52.006;4.720;2023-02-23T11:36:27;101588.25;;;9.76;100.00
18436;BME280;9346;52.006;4.720;2023-02-23T11:39:05;101589.97;;;9.77;100.00
18436;BME280;9346;52.006;4.720;2023-02-23T11:41:34;101578.09;;;9.76;100.00
18436;BME280;9346;52.006;4.720;2023-02-23T11:44:02;101572.59;;;9.76;100.00
18436;BME280;9346;52.006;4.720;2023-02-23T11:46:34;101567.94;;;9.77;100.00
18436;BME280;9346;52.006;4.720;2023-02-23T11:49:03;101565.19;;;9.77;100.00
18436;BME280;9346;52.006;4.720;2023-02-23T11:51:33;101566.91;;;9.83;100.00
18436;BME280;9346;52.006;4.720;2023-02-23T11:54:01;101566.75;;;9.89;100.00
18436;BME280;9346;52.006;4.720;2023-02-23T11:56:31;101563.25;;;9.94;100.00
18436;BME280;9346;52.006;4.720;2023-02-23T11:59:01;101569.59;;;9.94;100.00
18436;BME280;9346;52.006;4.720;2023-02-23T12:01:39;101566.59;;;9.96;100.00
18436;BME280;9346;52.006;4.720;2023-02-23T12:04:21;101571.50;;;9.94;100.00
18436;BME280;9346;52.006;4.720;2023-02-23T12:06:50;101575.09;;;9.94;100.00
18436;BME280;9346;52.006;4.720;2023-02-23T12:09:21;101567.59;;;9.90;100.00
18436;BME280;9346;52.006;4.720;2023-02-23T12:11:54;101578.59;;;9.90;100.00
18436;BME280;9346;52.006;4.720;2023-02-23T12:14:28;101574.25;;;9.94;100.00
18436;BME280;9346;52.006;4.720;2023-02-23T12:17:02;101572.91;;;9.96;100.00
18436;BME280;9346;52.006;4.720;2023-02-23T12:19:33;101565.50;;;9.97;100.00
18436;BME280;9346;52.006;4.720;2023-02-23T12:22:06;101570.16;;;9.96;100.00
18436;BME280;9346;52.006;4.720;2023-02-23T12:24:44;101570.75;;;9.98;100.00
18436;BME280;9346;52.006;4.720;2023-02-23T12:27:15;101566.91;;;9.99;100.00
18436;BME280;9346;52.006;4.720;2023-02-23T12:30:00;101566.41;;;10.02;100.00
18436;BME280;9346;52.006;4.720;2023-02-23T12:32:38;101569.50;;;10.06;100.00
18436;BME280;9346;52.006;4.720;2023-02-23T12:35:13;101555.72;;;10.06;100.00
18436;BME280;9346;52.006;4.720;2023-02-23T12:37:44;101555.72;;;10.06;100.00
18436;BME280;9346;52.006;4.720;2023-02-23T12:40:17;101551.91;;;10.07;100.00
18436;BME280;9346;52.006;4.720;2023-02-23T12:42:51;101558.81;;;10.09;100.00
18436;BME280;9346;52.006;4.720;2023-02-23T12:45:27;101555.56;;;10.12;100.00
18436;BME280;9346;52.006;4.720;2023-02-23T12:48:05;101561.66;;;10.14;100.00
18436;BME280;9346;52.006;4.720;2023-02-23T12:50:37;101560.06;;;10.18;100.00
18436;BME280;9346;52.006;4.720;2023-02-23T12:53:16;101565.13;;;10.26;100.00
18436;BME280;9346;52.006;4.720;2023-02-23T12:55:57;101565.94;;;10.27;100.00
18436;BME280;9346;52.006;4.720;2023-02-23T12:58:34;101559.69;;;10.31;100.00
18436;BME280;9346;52.006;4.720;2023-02-23T13:01:08;101558.84;;;10.31;100.00
18436;BME280;9346;52.006;4.720;2023-02-23T13:03:53;101555.31;;;10.35;100.00
18436;BME280;9346;52.006;4.720;2023-02-23T13:06:32;101557.66;;;10.43;100.00
18436;BME280;9346;52.006;4.720;2023-02-23T13:09:17;101554.91;;;10.43;100.00
18436;BME280;9346;52.006;4.720;2023-02-23T13:12:16;101548.78;;;10.41;100.00
18436;BME280;9346;52.006;4.720;2023-02-23T13:14:54;101557.66;;;10.43;100.00
18436;BME280;9346;52.006;4.720;2023-02-23T13:17:36;101552.41;;;10.42;100.00
18436;BME280;9346;52.006;4.720;2023-02-23T13:20:13;101554.00;;;10.38;100.00
18436;BME280;9346;52.006;4.720;2023-02-23T13:22:46;101558.16;;;10.40;100.00
18436;BME280;9346;52.006;4.720;2023-02-23T13:25:23;101555.97;;;10.42;100.00
18436;BME280;9346;52.006;4.720;2023-02-23T13:27:57;101549.63;;;10.42;100.00
18436;BME280;9346;52.006;4.720;2023-02-23T13:30:25;101557.06;;;10.41;100.00
18436;BME280;9346;52.006;4.720;2023-02-23T13:32:58;101556.50;;;10.39;100.00
18436;BME280;9346;52.006;4.720;2023-02-23T13:35:31;101555.41;;;10.40;100.00
18436;BME280;9346;52.006;4.720;2023-02-23T13:38:08;101553.16;;;10.37;100.00
18436;BME280;9346;52.006;4.720;2023-02-23T13:40:41;101560.31;;;10.38;100.00